Terminal Aerodrome Forecast
Issued by NWS Atlanta, GA

Home | Current Version | Previous Version | Text Only | Print | Product List | Glossary On
Versions: 1 2 3 4 5 6 7 8 9 10 11 12 13 14 15 16 17 18 19 20 21 22 23 24 25 26 27 28 29 30 31 32 33 34
887
FTUS42 KFFC 171741
TAFAHN
TAF
KAHN 171741Z 1718/1818 13004KT P6SM FEW250
     FM172300 00000KT P6SM FEW250
     FM181200 15004KT P6SM SCT090
     FM181500 18008G17KT P6SM BKN035
     FM181700 20010G20KT P6SM BKN030=

USA.gov is the U.S. government's official web portal to all federal, state and local government web resources and services.